sensor_id;sensor_type;location;lat;lon;timestamp;pressure;altitude;pressure_sealevel;temperature;humidity
6435;BME280;3250;42.694;23.278;2023-07-31T00:01:17;94519.34;;;23.15;72.24
6435;BME280;3250;42.694;23.278;2023-07-31T00:03:43;94483.50;;;22.79;71.66
6435;BME280;3250;42.694;23.278;2023-07-31T00:06:08;94528.09;;;23.07;71.66
6435;BME280;3250;42.694;23.278;2023-07-31T00:08:33;94492.66;;;22.78;71.76
6435;BME280;3250;42.694;23.278;2023-07-31T00:10:59;94493.56;;;22.87;71.66
6435;BME280;3250;42.694;23.278;2023-07-31T00:13:24;94494.59;;;22.72;71.43
6435;BME280;3250;42.694;23.278;2023-07-31T00:15:50;94526.97;;;22.94;72.05
6435;BME280;3250;42.694;23.278;2023-07-31T00:18:15;94532.16;;;23.05;72.55
6435;BME280;3250;42.694;23.278;2023-07-31T00:20:41;94502.53;;;22.96;73.38
6435;BME280;3250;42.694;23.278;2023-07-31T00:23:06;94498.63;;;22.88;74.13
6435;BME280;3250;42.694;23.278;2023-07-31T00:25:32;94493.56;;;22.87;74.97
6435;BME280;3250;42.694;23.278;2023-07-31T00:27:57;94478.78;;;22.71;75.70
6435;BME280;3250;42.694;23.278;2023-07-31T00:30:22;94474.66;;;22.78;75.36
6435;BME280;3250;42.694;23.278;2023-07-31T00:32:50;94448.13;;;22.58;75.91
6435;BME280;3250;42.694;23.278;2023-07-31T00:35:15;94452.56;;;22.35;77.77
6435;BME280;3250;42.694;23.278;2023-07-31T00:37:41;94484.38;;;22.42;78.48
6435;BME280;3250;42.694;23.278;2023-07-31T00:40:07;94451.75;;;22.21;78.85
6435;BME280;3250;42.694;23.278;2023-07-31T00:42:32;94462.00;;;22.33;79.03
6435;BME280;3250;42.694;23.278;2023-07-31T00:44:58;94472.06;;;22.41;78.98
6435;BME280;3250;42.694;23.278;2023-07-31T00:47:23;94482.25;;;22.25;79.46
6435;BME280;3250;42.694;23.278;2023-07-31T00:49:49;94489.06;;;22.17;80.05
6435;BME280;3250;42.694;23.278;2023-07-31T00:52:14;94496.25;;;22.22;80.30
6435;BME280;3250;42.694;23.278;2023-07-31T00:54:40;94491.47;;;22.19;80.27
6435;BME280;3250;42.694;23.278;2023-07-31T00:57:05;94452.06;;;22.01;79.92
6435;BME280;3250;42.694;23.278;2023-07-31T00:59:32;94439.16;;;21.84;80.32
6435;BME280;3250;42.694;23.278;2023-07-31T01:01:58;94473.25;;;22.16;80.20
6435;BME280;3250;42.694;23.278;2023-07-31T01:04:23;94468.63;;;22.22;80.15
6435;BME280;3250;42.694;23.278;2023-07-31T01:07:11;94475.22;;;21.92;82.03
6435;BME280;3250;42.694;23.278;2023-07-31T01:12:07;94469.28;;;21.95;81.53
6435;BME280;3250;42.694;23.278;2023-07-31T01:14:34;94476.75;;;21.79;81.92
6435;BME280;3250;42.694;23.278;2023-07-31T01:17:00;94472.03;;;21.52;83.46
6435;BME280;3250;42.694;23.278;2023-07-31T01:19:26;94466.50;;;21.62;83.22
6435;BME280;3250;42.694;23.278;2023-07-31T01:27:35;94452.03;;;21.63;82.63
6435;BME280;3250;42.694;23.278;2023-07-31T01:30:11;94460.69;;;21.36;84.90
6435;BME280;3250;42.694;23.278;2023-07-31T01:32:43;94426.09;;;21.21;84.90
6435;BME280;3250;42.694;23.278;2023-07-31T01:35:09;94441.31;;;21.26;85.08
6435;BME280;3250;42.694;23.278;2023-07-31T01:37:35;94444.03;;;21.21;85.01
6435;BME280;3250;42.694;23.278;2023-07-31T01:40:00;94418.22;;;21.06;85.17
6435;BME280;3250;42.694;23.278;2023-07-31T01:42:26;94453.78;;;21.35;85.54
6435;BME280;3250;42.694;23.278;2023-07-31T01:44:51;94463.75;;;21.30;85.86
6435;BME280;3250;42.694;23.278;2023-07-31T01:47:17;94409.63;;;20.85;86.84
6435;BME280;3250;42.694;23.278;2023-07-31T01:49:42;94458.75;;;21.23;86.55
6435;BME280;3250;42.694;23.278;2023-07-31T01:52:07;94460.34;;;21.24;86.72
6435;BME280;3250;42.694;23.278;2023-07-31T01:54:33;94464.66;;;21.20;86.99
6435;BME280;3250;42.694;23.278;2023-07-31T01:56:58;94453.47;;;21.13;87.18
6435;BME280;3250;42.694;23.278;2023-07-31T01:59:24;94466.00;;;20.94;88.73
6435;BME280;3250;42.694;23.278;2023-07-31T02:01:49;94470.50;;;20.75;89.93
6435;BME280;3250;42.694;23.278;2023-07-31T02:04:15;94467.78;;;20.80;89.80
6435;BME280;3250;42.694;23.278;2023-07-31T02:06:40;94437.72;;;20.64;90.20
6435;BME280;3250;42.694;23.278;2023-07-31T02:09:06;94451.06;;;20.93;88.97
6435;BME280;3250;42.694;23.278;2023-07-31T02:11:31;94436.28;;;20.95;88.13
6435;BME280;3250;42.694;23.278;2023-07-31T02:13:56;94477.72;;;21.45;87.54
6435;BME280;3250;42.694;23.278;2023-07-31T02:16:22;94482.88;;;21.42;87.77
6435;BME280;3250;42.694;23.278;2023-07-31T02:18:47;94426.13;;;21.16;87.42
6435;BME280;3250;42.694;23.278;2023-07-31T02:21:12;94460.69;;;21.18;87.99
6435;BME280;3250;42.694;23.278;2023-07-31T02:23:38;94482.13;;;21.36;88.22
6435;BME280;3250;42.694;23.278;2023-07-31T02:26:03;94469.91;;;21.49;87.42
6435;BME280;3250;42.694;23.278;2023-07-31T02:28:29;94476.59;;;21.52;87.63
6435;BME280;3250;42.694;23.278;2023-07-31T02:30:55;94464.19;;;21.56;87.04
6435;BME280;3250;42.694;23.278;2023-07-31T02:33:20;94479.50;;;21.74;86.08
6435;BME280;3250;42.694;23.278;2023-07-31T02:35:45;94466.19;;;21.69;86.42
6435;BME280;3250;42.694;23.278;2023-07-31T02:38:11;94416.72;;;21.42;86.07
6435;BME280;3250;42.694;23.278;2023-07-31T02:40:36;94474.00;;;21.84;85.54
6435;BME280;3250;42.694;23.278;2023-07-31T02:43:02;94466.66;;;21.71;85.80
6435;BME280;3250;42.694;23.278;2023-07-31T02:45:27;94474.06;;;21.79;85.96
6435;BME280;3250;42.694;23.278;2023-07-31T02:47:52;94471.44;;;21.55;86.41
6435;BME280;3250;42.694;23.278;2023-07-31T02:50:18;94488.81;;;21.58;86.59
6435;BME280;3250;42.694;23.278;2023-07-31T02:52:43;94493.63;;;21.61;86.70
6435;BME280;3250;42.694;23.278;2023-07-31T02:55:09;94477.81;;;21.59;86.28
6435;BME280;3250;42.694;23.278;2023-07-31T02:57:34;94495.19;;;21.80;85.53
6435;BME280;3250;42.694;23.278;2023-07-31T02:59:59;94452.41;;;21.57;85.13
6435;BME280;3250;42.694;23.278;2023-07-31T03:02:25;94455.88;;;21.76;84.33
6435;BME280;3250;42.694;23.278;2023-07-31T03:04:50;94500.38;;;22.14;84.10
6435;BME280;3250;42.694;23.278;2023-07-31T03:07:16;94492.22;;;21.63;85.43
6435;BME280;3250;42.694;23.278;2023-07-31T03:09:41;94498.97;;;21.79;85.25
6435;BME280;3250;42.694;23.278;2023-07-31T03:12:07;94494.28;;;21.90;84.73
6435;BME280;3250;42.694;23.278;2023-07-31T03:14:33;94493.88;;;22.02;84.50
6435;BME280;3250;42.694;23.278;2023-07-31T03:16:59;94480.25;;;21.98;84.11
6435;BME280;3250;42.694;23.278;2023-07-31T03:19:24;94511.53;;;22.22;83.94
6435;BME280;3250;42.694;23.278;2023-07-31T03:21:50;94514.28;;;22.16;84.13
6435;BME280;3250;42.694;23.278;2023-07-31T03:24:15;94457.81;;;21.89;84.09
6435;BME280;3250;42.694;23.278;2023-07-31T03:26:40;94504.06;;;22.18;83.85
6435;BME280;3250;42.694;23.278;2023-07-31T03:29:07;94473.22;;;22.02;83.28
6435;BME280;3250;42.694;23.278;2023-07-31T03:31:33;94517.63;;;22.08;84.30
6435;BME280;3250;42.694;23.278;2023-07-31T03:33:58;94480.28;;;21.56;85.13
6435;BME280;3250;42.694;23.278;2023-07-31T03:36:23;94494.59;;;21.46;86.18
6435;BME280;3250;42.694;23.278;2023-07-31T03:38:49;94521.94;;;21.67;85.70
6435;BME280;3250;42.694;23.278;2023-07-31T03:41:14;94524.03;;;21.70;85.34
6435;BME280;3250;42.694;23.278;2023-07-31T03:43:40;94487.91;;;21.67;84.84
6435;BME280;3250;42.694;23.278;2023-07-31T03:46:05;94435.06;;;21.30;84.17
6435;BME280;3250;42.694;23.278;2023-07-31T03:48:30;94495.41;;;21.46;85.01
6435;BME280;3250;42.694;23.278;2023-07-31T03:50:56;94536.34;;;21.90;84.50
6435;BME280;3250;42.694;23.278;2023-07-31T03:53:21;94477.31;;;21.57;84.32
6435;BME280;3250;42.694;23.278;2023-07-31T03:55:47;94513.16;;;21.80;84.11
6435;BME280;3250;42.694;23.278;2023-07-31T03:58:12;94468.47;;;21.57;83.62
6435;BME280;3250;42.694;23.278;2023-07-31T04:00:40;94541.91;;;21.98;83.89
6435;BME280;3250;42.694;23.278;2023-07-31T04:03:05;94541.38;;;21.96;84.14
6435;BME280;3250;42.694;23.278;2023-07-31T04:05:32;94545.94;;;21.96;84.04
6435;BME280;3250;42.694;23.278;2023-07-31T04:07:57;94498.63;;;21.67;83.72
6435;BME280;3250;42.694;23.278;2023-07-31T04:10:23;94489.22;;;21.70;83.75
6435;BME280;3250;42.694;23.278;2023-07-31T04:12:48;94497.03;;;21.85;82.69
6435;BME280;3250;42.694;23.278;2023-07-31T04:15:14;94498.63;;;21.86;82.55
6435;BME280;3250;42.694;23.278;2023-07-31T04:17:39;94510.81;;;21.97;82.73
6435;BME280;3250;42.694;23.278;2023-07-31T04:20:05;94541.34;;;22.01;83.41
6435;BME280;3250;42.694;23.278;2023-07-31T04:22:31;94528.25;;;21.95;83.20
6435;BME280;3250;42.694;23.278;2023-07-31T04:24:56;94521.44;;;21.83;83.45
6435;BME280;3250;42.694;23.278;2023-07-31T04:27:21;94538.31;;;21.84;83.24
6435;BME280;3250;42.694;23.278;2023-07-31T04:29:47;94537.88;;;21.77;83.23
6435;BME280;3250;42.694;23.278;2023-07-31T04:32:13;94556.91;;;21.99;83.40
6435;BME280;3250;42.694;23.278;2023-07-31T04:34:38;94548.81;;;22.04;82.98
6435;BME280;3250;42.694;23.278;2023-07-31T04:37:04;94549.94;;;21.98;82.85
6435;BME280;3250;42.694;23.278;2023-07-31T04:39:29;94545.59;;;22.02;82.67
6435;BME280;3250;42.694;23.278;2023-07-31T04:41:54;94546.19;;;22.18;82.03
6435;BME280;3250;42.694;23.278;2023-07-31T04:44:20;94530.66;;;21.96;82.09
6435;BME280;3250;42.694;23.278;2023-07-31T04:46:45;94527.41;;;22.18;81.66
6435;BME280;3250;42.694;23.278;2023-07-31T04:49:11;94543.88;;;22.63;81.36
6435;BME280;3250;42.694;23.278;2023-07-31T04:51:37;94518.91;;;22.81;79.39
6435;BME280;3250;42.694;23.278;2023-07-31T04:54:02;94549.91;;;23.33;77.58
6435;BME280;3250;42.694;23.278;2023-07-31T04:56:28;94541.16;;;23.55;76.65
6435;BME280;3250;42.694;23.278;2023-07-31T04:58:53;94531.22;;;23.55;75.82
6435;BME280;3250;42.694;23.278;2023-07-31T05:01:18;94546.81;;;23.81;75.26
6435;BME280;3250;42.694;23.278;2023-07-31T05:03:44;94545.44;;;23.83;75.05
6435;BME280;3250;42.694;23.278;2023-07-31T05:06:09;94550.69;;;23.88;74.75
6435;BME280;3250;42.694;23.278;2023-07-31T05:08:34;94544.41;;;23.93;74.56
6435;BME280;3250;42.694;23.278;2023-07-31T05:11:00;94553.06;;;24.39;74.10
6435;BME280;3250;42.694;23.278;2023-07-31T05:13:25;94519.44;;;24.73;71.35
6435;BME280;3250;42.694;23.278;2023-07-31T05:15:51;94548.47;;;24.98;69.60
6435;BME280;3250;42.694;23.278;2023-07-31T05:18:16;94544.41;;;24.87;70.27
6435;BME280;3250;42.694;23.278;2023-07-31T05:20:41;94547.66;;;24.53;70.16
6435;BME280;3250;42.694;23.278;2023-07-31T05:23:07;94549.97;;;23.96;71.72
6435;BME280;3250;42.694;23.278;2023-07-31T05:25:32;94530.00;;;23.75;72.91
6435;BME280;3250;42.694;23.278;2023-07-31T05:27:58;94528.63;;;23.78;73.42
6435;BME280;3250;42.694;23.278;2023-07-31T05:30:23;94535.19;;;23.85;73.20
6435;BME280;3250;42.694;23.278;2023-07-31T05:32:48;94550.00;;;23.83;72.63
6435;BME280;3250;42.694;23.278;2023-07-31T05:35:14;94518.06;;;23.67;73.35
6435;BME280;3250;42.694;23.278;2023-07-31T05:37:39;94556.47;;;23.95;72.03
6435;BME280;3250;42.694;23.278;2023-07-31T05:40:05;94548.66;;;24.07;72.27
6435;BME280;3250;42.694;23.278;2023-07-31T05:42:31;94540.78;;;24.11;70.60
6435;BME280;3250;42.694;23.278;2023-07-31T05:44:56;94498.41;;;23.94;70.47
6435;BME280;3250;42.694;23.278;2023-07-31T05:47:23;94501.56;;;23.96;69.33
6435;BME280;3250;42.694;23.278;2023-07-31T05:49:49;94534.50;;;24.29;69.86
6435;BME280;3250;42.694;23.278;2023-07-31T05:52:14;94529.72;;;24.71;69.15
6435;BME280;3250;42.694;23.278;2023-07-31T05:54:41;94519.78;;;25.02;66.22
6435;BME280;3250;42.694;23.278;2023-07-31T05:57:07;94537.31;;;25.22;66.01
6435;BME280;3250;42.694;23.278;2023-07-31T05:59:32;94553.69;;;25.65;64.67
6435;BME280;3250;42.694;23.278;2023-07-31T06:01:58;94543.06;;;25.77;61.53
6435;BME280;3250;42.694;23.278;2023-07-31T06:04:24;94559.56;;;26.33;61.57
6435;BME280;3250;42.694;23.278;2023-07-31T06:06:51;94564.16;;;26.58;60.34
6435;BME280;3250;42.694;23.278;2023-07-31T06:09:16;94543.97;;;26.47;59.63
6435;BME280;3250;42.694;23.278;2023-07-31T06:11:42;94564.94;;;26.58;59.55
6435;BME280;3250;42.694;23.278;2023-07-31T06:14:08;94545.19;;;25.98;59.93
6435;BME280;3250;42.694;23.278;2023-07-31T06:16:36;94547.59;;;25.20;62.17
6435;BME280;3250;42.694;23.278;2023-07-31T06:19:02;94557.78;;;25.23;63.49
6435;BME280;3250;42.694;23.278;2023-07-31T06:21:27;94563.66;;;25.25;63.29
6435;BME280;3250;42.694;23.278;2023-07-31T06:23:53;94562.19;;;25.19;63.11
6435;BME280;3250;42.694;23.278;2023-07-31T06:26:18;94562.94;;;25.11;63.32
6435;BME280;3250;42.694;23.278;2023-07-31T06:28:44;94541.34;;;25.02;63.41
6435;BME280;3250;42.694;23.278;2023-07-31T06:31:09;94564.25;;;25.22;63.13
6435;BME280;3250;42.694;23.278;2023-07-31T06:33:35;94569.13;;;25.42;63.91
6435;BME280;3250;42.694;23.278;2023-07-31T06:36:00;94576.41;;;25.81;62.85
6435;BME280;3250;42.694;23.278;2023-07-31T06:38:29;94579.81;;;26.21;62.20
6435;BME280;3250;42.694;23.278;2023-07-31T06:40:54;94557.81;;;26.62;60.95
6435;BME280;3250;42.694;23.278;2023-07-31T06:43:22;94573.03;;;27.10;59.84
6435;BME280;3250;42.694;23.278;2023-07-31T06:45:48;94586.41;;;27.53;58.48
6435;BME280;3250;42.694;23.278;2023-07-31T06:48:16;94575.19;;;27.81;56.44
6435;BME280;3250;42.694;23.278;2023-07-31T06:50:41;94562.16;;;28.03;55.35
6435;BME280;3250;42.694;23.278;2023-07-31T06:53:07;94569.63;;;28.36;54.94
6435;BME280;3250;42.694;23.278;2023-07-31T06:55:32;94560.91;;;28.51;53.74
6435;BME280;3250;42.694;23.278;2023-07-31T06:57:58;94579.66;;;28.98;53.24
6435;BME280;3250;42.694;23.278;2023-07-31T07:00:23;94565.25;;;29.06;52.48
6435;BME280;3250;42.694;23.278;2023-07-31T07:02:49;94549.38;;;28.75;52.46
6435;BME280;3250;42.694;23.278;2023-07-31T07:05:15;94570.28;;;28.95;52.17
6435;BME280;3250;42.694;23.278;2023-07-31T07:07:41;94547.13;;;28.98;53.43
6435;BME280;3250;42.694;23.278;2023-07-31T07:10:08;94553.88;;;28.29;52.05
6435;BME280;3250;42.694;23.278;2023-07-31T07:12:34;94572.91;;;27.91;53.03
6435;BME280;3250;42.694;23.278;2023-07-31T07:15:00;94567.34;;;27.58;53.47
6435;BME280;3250;42.694;23.278;2023-07-31T07:17:26;94569.78;;;27.81;54.00
6435;BME280;3250;42.694;23.278;2023-07-31T07:19:52;94466.59;;;27.53;53.86
6435;BME280;3250;42.694;23.278;2023-07-31T07:22:18;94556.66;;;27.91;52.28
6435;BME280;3250;42.694;23.278;2023-07-31T07:24:43;94542.09;;;28.34;53.41
6435;BME280;3250;42.694;23.278;2023-07-31T07:27:09;94519.66;;;28.66;52.11
6435;BME280;3250;42.694;23.278;2023-07-31T07:29:37;94555.50;;;29.38;50.97
6435;BME280;3250;42.694;23.278;2023-07-31T07:32:04;94532.13;;;29.57;48.52
6435;BME280;3250;42.694;23.278;2023-07-31T07:34:29;94579.50;;;30.33;48.47
6435;BME280;3250;42.694;23.278;2023-07-31T07:36:55;94570.84;;;30.67;46.52
6435;BME280;3250;42.694;23.278;2023-07-31T07:39:20;94582.09;;;30.94;45.76
6435;BME280;3250;42.694;23.278;2023-07-31T07:41:46;94576.38;;;30.99;46.27
6435;BME280;3250;42.694;23.278;2023-07-31T07:44:12;94563.69;;;31.03;45.96
6435;BME280;3250;42.694;23.278;2023-07-31T07:46:38;94539.34;;;30.79;45.01
6435;BME280;3250;42.694;23.278;2023-07-31T07:49:04;94585.34;;;30.99;45.65
6435;BME280;3250;42.694;23.278;2023-07-31T07:51:30;94578.06;;;30.75;44.49
6435;BME280;3250;42.694;23.278;2023-07-31T07:53:57;94558.41;;;30.66;44.64
6435;BME280;3250;42.694;23.278;2023-07-31T07:56:23;94583.16;;;31.05;44.78
6435;BME280;3250;42.694;23.278;2023-07-31T07:58:50;94588.47;;;30.86;45.15
6435;BME280;3250;42.694;23.278;2023-07-31T08:01:16;94566.94;;;30.53;45.93
6435;BME280;3250;42.694;23.278;2023-07-31T08:03:41;94581.00;;;29.82;46.28
6435;BME280;3250;42.694;23.278;2023-07-31T08:06:06;94592.31;;;29.96;47.16
6435;BME280;3250;42.694;23.278;2023-07-31T08:08:34;94588.09;;;29.86;47.78
6435;BME280;3250;42.694;23.278;2023-07-31T08:11:00;94573.50;;;30.27;47.96
6435;BME280;3250;42.694;23.278;2023-07-31T08:13:25;94582.50;;;31.08;45.89
6435;BME280;3250;42.694;23.278;2023-07-31T08:15:50;94589.34;;;31.61;44.89
6435;BME280;3250;42.694;23.278;2023-07-31T08:18:16;94592.22;;;31.80;42.90
6435;BME280;3250;42.694;23.278;2023-07-31T08:20:42;94581.19;;;31.93;43.30
6435;BME280;3250;42.694;23.278;2023-07-31T08:23:08;94564.09;;;31.76;42.60
6435;BME280;3250;42.694;23.278;2023-07-31T08:25:35;94579.41;;;31.22;43.58
6435;BME280;3250;42.694;23.278;2023-07-31T08:28:01;94569.00;;;30.71;44.05
6435;BME280;3250;42.694;23.278;2023-07-31T08:30:26;94575.72;;;30.10;45.10
6435;BME280;3250;42.694;23.278;2023-07-31T08:32:52;94583.81;;;30.34;46.49
6435;BME280;3250;42.694;23.278;2023-07-31T08:35:17;94547.50;;;29.90;44.72
6435;BME280;3250;42.694;23.278;2023-07-31T08:37:43;94575.28;;;29.50;47.07
6435;BME280;3250;42.694;23.278;2023-07-31T08:40:09;94575.44;;;29.66;48.21
6435;BME280;3250;42.694;23.278;2023-07-31T08:42:43;94579.09;;;30.07;46.45
6435;BME280;3250;42.694;23.278;2023-07-31T08:45:09;94582.91;;;30.42;46.77
6435;BME280;3250;42.694;23.278;2023-07-31T08:47:34;94578.16;;;30.51;45.18
6435;BME280;3250;42.694;23.278;2023-07-31T08:50:00;94549.00;;;29.99;45.33
6435;BME280;3250;42.694;23.278;2023-07-31T08:52:27;94565.50;;;30.07;46.11
6435;BME280;3250;42.694;23.278;2023-07-31T08:54:52;94528.84;;;29.52;45.25
6435;BME280;3250;42.694;23.278;2023-07-31T08:57:18;94541.13;;;28.92;47.06
6435;BME280;3250;42.694;23.278;2023-07-31T08:59:43;94560.50;;;29.60;46.87
6435;BME280;3250;42.694;23.278;2023-07-31T09:02:09;94540.72;;;29.59;46.04
6435;BME280;3250;42.694;23.278;2023-07-31T09:04:35;94548.09;;;29.95;45.72
6435;BME280;3250;42.694;23.278;2023-07-31T09:07:02;94576.44;;;30.59;44.98
6435;BME280;3250;42.694;23.278;2023-07-31T09:09:31;94574.41;;;30.84;44.08
6435;BME280;3250;42.694;23.278;2023-07-31T09:12:00;94560.41;;;31.09;43.20
6435;BME280;3250;42.694;23.278;2023-07-31T09:14:26;94516.75;;;31.06;42.93
6435;BME280;3250;42.694;23.278;2023-07-31T09:16:55;94557.16;;;30.64;44.26
6435;BME280;3250;42.694;23.278;2023-07-31T09:19:29;94534.53;;;30.48;44.38
6435;BME280;3250;42.694;23.278;2023-07-31T09:21:55;94552.94;;;30.26;44.15
6435;BME280;3250;42.694;23.278;2023-07-31T09:24:28;94550.44;;;30.21;46.05
6435;BME280;3250;42.694;23.278;2023-07-31T09:26:54;94509.63;;;29.69;46.08
6435;BME280;3250;42.694;23.278;2023-07-31T09:29:21;94516.97;;;30.05;46.57
6435;BME280;3250;42.694;23.278;2023-07-31T09:31:47;94521.97;;;30.43;45.02
6435;BME280;3250;42.694;23.278;2023-07-31T09:34:15;94552.63;;;30.68;44.04
6435;BME280;3250;42.694;23.278;2023-07-31T09:36:45;94526.75;;;30.74;44.29
6435;BME280;3250;42.694;23.278;2023-07-31T09:39:12;94549.69;;;31.17;43.14
6435;BME280;3250;42.694;23.278;2023-07-31T09:41:47;94499.41;;;31.10;42.45
6435;BME280;3250;42.694;23.278;2023-07-31T09:44:12;94537.53;;;31.42;43.15
6435;BME280;3250;42.694;23.278;2023-07-31T09:46:38;94514.97;;;31.41;43.08
6435;BME280;3250;42.694;23.278;2023-07-31T09:49:08;94524.88;;;31.49;42.15
6435;BME280;3250;42.694;23.278;2023-07-31T09:51:36;94531.28;;;31.57;42.96
6435;BME280;3250;42.694;23.278;2023-07-31T09:54:13;94506.78;;;31.41;41.17
6435;BME280;3250;42.694;23.278;2023-07-31T09:56:47;94536.84;;;31.01;41.39
6435;BME280;3250;42.694;23.278;2023-07-31T09:59:17;94510.50;;;30.62;42.44
6435;BME280;3250;42.694;23.278;2023-07-31T10:01:45;94539.97;;;30.60;43.97
6435;BME280;3250;42.694;23.278;2023-07-31T10:04:12;94534.75;;;30.55;44.08
6435;BME280;3250;42.694;23.278;2023-07-31T10:06:39;94530.06;;;30.67;44.67
6435;BME280;3250;42.694;23.278;2023-07-31T10:09:08;94501.56;;;30.61;44.67
6435;BME280;3250;42.694;23.278;2023-07-31T10:11:41;94537.63;;;31.02;43.49
6435;BME280;3250;42.694;23.278;2023-07-31T10:14:07;94510.88;;;31.04;42.29
6435;BME280;3250;42.694;23.278;2023-07-31T10:16:35;94520.31;;;31.22;41.96
6435;BME280;3250;42.694;23.278;2023-07-31T10:19:01;94500.56;;;31.09;40.71
6435;BME280;3250;42.694;23.278;2023-07-31T10:21:27;94503.06;;;31.02;42.09
6435;BME280;3250;42.694;23.278;2023-07-31T10:23:54;94505.97;;;30.66;41.72
6435;BME280;3250;42.694;23.278;2023-07-31T10:26:21;94525.91;;;30.58;42.13
6435;BME280;3250;42.694;23.278;2023-07-31T10:28:49;94522.19;;;30.50;43.46
6435;BME280;3250;42.694;23.278;2023-07-31T10:31:16;94511.34;;;30.38;43.45
6435;BME280;3250;42.694;23.278;2023-07-31T10:33:43;94516.22;;;30.32;43.30
6435;BME280;3250;42.694;23.278;2023-07-31T10:36:19;94519.28;;;30.43;43.51
6435;BME280;3250;42.694;23.278;2023-07-31T10:38:45;94516.88;;;30.54;43.28
6435;BME280;3250;42.694;23.278;2023-07-31T10:41:11;94503.63;;;30.52;42.74
6435;BME280;3250;42.694;23.278;2023-07-31T10:43:37;94513.47;;;30.45;42.00
6435;BME280;3250;42.694;23.278;2023-07-31T10:46:12;94511.69;;;30.36;42.77
6435;BME280;3250;42.694;23.278;2023-07-31T10:48:40;94517.09;;;30.49;43.45
6435;BME280;3250;42.694;23.278;2023-07-31T10:51:08;94513.19;;;30.22;41.69
6435;BME280;3250;42.694;23.278;2023-07-31T10:53:38;94507.69;;;30.18;42.73
6435;BME280;3250;42.694;23.278;2023-07-31T10:56:07;94501.06;;;30.31;41.14
6435;BME280;3250;42.694;23.278;2023-07-31T10:58:33;94493.91;;;30.39;41.33
6435;BME280;3250;42.694;23.278;2023-07-31T11:01:00;94505.66;;;30.55;42.07
6435;BME280;3250;42.694;23.278;2023-07-31T11:03:40;94479.97;;;30.53;41.06
6435;BME280;3250;42.694;23.278;2023-07-31T11:06:09;94494.88;;;30.59;40.18
6435;BME280;3250;42.694;23.278;2023-07-31T11:08:38;94464.78;;;30.12;41.24
6435;BME280;3250;42.694;23.278;2023-07-31T11:11:09;94458.56;;;30.11;42.62
6435;BME280;3250;42.694;23.278;2023-07-31T11:16:09;94500.97;;;30.68;40.95
6435;BME280;3250;42.694;23.278;2023-07-31T11:18:35;94498.09;;;30.77;40.37
6435;BME280;3250;42.694;23.278;2023-07-31T11:21:00;94468.34;;;30.68;39.80
6435;BME280;3250;42.694;23.278;2023-07-31T11:23:26;94463.88;;;30.75;40.25
6435;BME280;3250;42.694;23.278;2023-07-31T11:25:52;94486.97;;;30.97;40.44
6435;BME280;3250;42.694;23.278;2023-07-31T11:28:18;94471.13;;;30.99;38.27
6435;BME280;3250;42.694;23.278;2023-07-31T11:30:45;94479.50;;;30.79;39.53
6435;BME280;3250;42.694;23.278;2023-07-31T11:33:12;94498.06;;;30.61;39.53
6435;BME280;3250;42.694;23.278;2023-07-31T11:35:48;94476.75;;;30.23;41.26
6435;BME280;3250;42.694;23.278;2023-07-31T11:38:24;94485.63;;;30.08;41.49
6435;BME280;3250;42.694;23.278;2023-07-31T11:40:51;94489.59;;;29.98;43.02
6435;BME280;3250;42.694;23.278;2023-07-31T11:43:17;94480.66;;;29.97;42.73
6435;BME280;3250;42.694;23.278;2023-07-31T11:45:54;94448.44;;;29.84;41.82
6435;BME280;3250;42.694;23.278;2023-07-31T11:48:34;94447.81;;;30.02;42.07
6435;BME280;3250;42.694;23.278;2023-07-31T11:51:03;94467.56;;;30.27;41.31
6435;BME280;3250;42.694;23.278;2023-07-31T11:53:31;94468.22;;;30.36;42.07
6435;BME280;3250;42.694;23.278;2023-07-31T11:55:59;94481.09;;;30.52;41.47
6435;BME280;3250;42.694;23.278;2023-07-31T11:58:26;94465.59;;;30.52;41.80
6435;BME280;3250;42.694;23.278;2023-07-31T12:00:52;94472.66;;;30.69;42.22
6435;BME280;3250;42.694;23.278;2023-07-31T12:03:18;94476.00;;;30.78;42.12
6435;BME280;3250;42.694;23.278;2023-07-31T12:05:44;94468.28;;;30.80;41.01
6435;BME280;3250;42.694;23.278;2023-07-31T12:08:11;94471.91;;;30.56;41.43
6435;BME280;3250;42.694;23.278;2023-07-31T12:10:39;94461.75;;;30.41;42.33
6435;BME280;3250;42.694;23.278;2023-07-31T12:13:10;94466.13;;;30.58;42.62
6435;BME280;3250;42.694;23.278;2023-07-31T12:15:41;94467.72;;;30.59;42.84
6435;BME280;3250;42.694;23.278;2023-07-31T12:18:12;94452.53;;;30.58;42.94
6435;BME280;3250;42.694;23.278;2023-07-31T12:20:49;94443.34;;;30.34;42.10
6435;BME280;3250;42.694;23.278;2023-07-31T12:23:21;94435.66;;;30.24;41.48
6435;BME280;3250;42.694;23.278;2023-07-31T12:26:12;94458.38;;;30.32;41.03
6435;BME280;3250;42.694;23.278;2023-07-31T12:28:43;94460.13;;;30.12;40.30
6435;BME280;3250;42.694;23.278;2023-07-31T12:31:10;94429.19;;;29.89;40.64
6435;BME280;3250;42.694;23.278;2023-07-31T12:33:38;94459.69;;;30.10;41.31
6435;BME280;3250;42.694;23.278;2023-07-31T12:36:16;94457.75;;;30.11;41.06
6435;BME280;3250;42.694;23.278;2023-07-31T12:38:42;94465.50;;;30.09;41.01
6435;BME280;3250;42.694;23.278;2023-07-31T12:41:11;94450.00;;;29.97;40.77
6435;BME280;3250;42.694;23.278;2023-07-31T12:43:40;94436.19;;;29.78;41.40
6435;BME280;3250;42.694;23.278;2023-07-31T12:46:06;94451.16;;;29.84;41.99
6435;BME280;3250;42.694;23.278;2023-07-31T12:48:37;94436.91;;;29.62;42.27
6435;BME280;3250;42.694;23.278;2023-07-31T12:51:02;94433.97;;;29.31;41.98
6435;BME280;3250;42.694;23.278;2023-07-31T12:53:28;94435.91;;;29.31;42.84
6435;BME280;3250;42.694;23.278;2023-07-31T12:55:55;94441.22;;;29.51;43.84
6435;BME280;3250;42.694;23.278;2023-07-31T12:58:24;94426.94;;;29.79;42.51
6435;BME280;3250;42.694;23.278;2023-07-31T13:00:49;94420.34;;;30.04;42.42
6435;BME280;3250;42.694;23.278;2023-07-31T13:03:15;94414.72;;;30.25;43.77
6435;BME280;3250;42.694;23.278;2023-07-31T13:05:40;94416.09;;;30.19;42.37
6435;BME280;3250;42.694;23.278;2023-07-31T13:08:06;94400.31;;;30.09;40.84
6435;BME280;3250;42.694;23.278;2023-07-31T13:10:33;94438.84;;;30.26;41.20
6435;BME280;3250;42.694;23.278;2023-07-31T13:13:00;94432.78;;;29.93;41.44
6435;BME280;3250;42.694;23.278;2023-07-31T13:15:26;94418.34;;;29.77;42.07
6435;BME280;3250;42.694;23.278;2023-07-31T13:17:53;94418.84;;;29.54;41.38